createdAt,value
2023-01-01T00:00:46.252Z,77.28
2023-01-01T00:03:50.780Z,77.74
2023-01-01T00:06:52.242Z,77.22
2023-01-01T00:09:53.989Z,77.32
2023-01-01T00:12:55.912Z,77.32
2023-01-01T00:16:04.025Z,77.48
2023-01-01T00:19:07.111Z,77.90
2023-01-01T00:22:35.242Z,77.84
2023-01-01T00:25:30.097Z,76.90
2023-01-01T00:28:31.938Z,76.11
2023-01-01T00:31:34.585Z,76.34
2023-01-01T00:34:37.425Z,76.39
2023-01-01T00:37:44.888Z,76.32
2023-01-01T00:40:48.052Z,77.30
2023-01-01T00:43:49.896Z,77.40
2023-01-01T00:46:51.408Z,77.33
2023-01-01T00:49:54.234Z,77.29
2023-01-01T00:52:55.754Z,76.65
2023-01-01T00:55:57.803Z,77.18
2023-01-01T00:59:00.905Z,76.58
2023-01-01T01:02:03.651Z,75.80
2023-01-01T01:05:08.086Z,76.49
2023-01-01T01:08:09.602Z,75.20
2023-01-01T01:11:13.661Z,75.58
2023-01-01T01:14:15.188Z,74.73
2023-01-01T01:17:16.706Z,75.75
2023-01-01T01:20:19.809Z,75.51
2023-01-01T01:23:21.417Z,75.52
2023-01-01T01:26:23.629Z,76.34
2023-01-01T01:29:25.471Z,76.47
2023-01-01T01:32:27.042Z,76.41
2023-01-01T01:35:29.866Z,77.55
2023-01-01T01:38:31.750Z,80.08
2023-01-01T01:41:33.412Z,82.44
2023-01-01T01:44:53.175Z,82.58
2023-01-01T01:47:55.801Z,83.18
2023-01-01T01:50:58.577Z,83.65
2023-01-01T01:54:02.985Z,84.38
2023-01-01T01:57:06.857Z,82.53
2023-01-01T02:00:11.982Z,79.69
2023-01-01T02:03:20.286Z,78.40
2023-01-01T02:06:23.366Z,79.14
2023-01-01T02:09:24.870Z,78.55
2023-01-01T02:12:27.004Z,76.64
2023-01-01T02:15:31.416Z,76.66
2023-01-01T02:18:37.436Z,77.08
2023-01-01T02:21:52.657Z,75.04
2023-01-01T02:25:04.930Z,75.62
2023-01-01T02:28:10.480Z,75.62
2023-01-01T02:31:22.805Z,76.53
2023-01-01T02:34:28.353Z,75.96
2023-01-01T02:37:30.050Z,75.37
2023-01-01T02:40:31.415Z,74.95
2023-01-01T02:43:32.920Z,74.47
2023-01-01T02:46:36.293Z,73.58
2023-01-01T02:49:42.117Z,74.48
2023-01-01T02:52:55.196Z,75.10
2023-01-01T02:56:03.651Z,73.43
2023-01-01T02:59:15.710Z,72.77
2023-01-01T03:02:23.356Z,72.52
2023-01-01T03:05:30.095Z,72.78
2023-01-01T03:08:41.491Z,72.96
2023-01-01T03:11:48.289Z,71.44
2023-01-01T03:14:52.775Z,72.50
2023-01-01T03:18:00.863Z,71.42
2023-01-01T03:21:03.896Z,70.61
2023-01-01T03:24:05.531Z,70.33
2023-01-01T03:27:07.555Z,70.49
2023-01-01T03:30:11.107Z,70.36
2023-01-01T03:33:25.463Z,70.49
2023-01-01T03:36:29.393Z,69.08
2023-01-01T03:39:34.441Z,68.44
2023-01-01T03:42:39.080Z,68.97
2023-01-01T03:45:42.454Z,69.01
2023-01-01T03:48:45.314Z,68.83
2023-01-01T03:51:57.299Z,68.84
2023-01-01T03:55:04.208Z,69.56
2023-01-01T03:58:10.340Z,69.13
2023-01-01T04:01:15.641Z,68.80
2023-01-01T04:04:19.100Z,69.06
2023-01-01T04:07:21.167Z,68.76
2023-01-01T04:10:23.486Z,68.57
2023-01-01T04:13:25.641Z,68.30
2023-01-01T04:16:27.389Z,68.69
2023-01-01T04:19:30.297Z,68.30
2023-01-01T04:22:31.744Z,69.57
2023-01-01T04:25:33.320Z,69.25
2023-01-01T04:28:34.992Z,69.85
2023-01-01T04:31:36.506Z,70.22
2023-01-01T04:34:39.333Z,70.45
2023-01-01T04:37:42.845Z,70.04
2023-01-01T04:40:44.433Z,70.89
2023-01-01T04:43:46.936Z,70.79
2023-01-01T04:46:59.996Z,71.26
2023-01-01T04:50:03.416Z,70.62
2023-01-01T04:53:04.895Z,70.30
2023-01-01T04:56:07.729Z,71.02
2023-01-01T04:59:09.217Z,71.41
2023-01-01T05:02:10.855Z,71.32
2023-01-01T05:05:13.604Z,70.40
2023-01-01T05:08:15.395Z,71.84
2023-01-01T05:11:18.754Z,70.96
2023-01-01T05:14:20.442Z,71.66
2023-01-01T05:17:21.937Z,71.90
2023-01-01T05:20:24.764Z,71.13
2023-01-01T05:23:26.214Z,72.42
2023-01-01T05:26:29.172Z,71.90
2023-01-01T05:29:31.371Z,71.37
2023-01-01T05:32:32.926Z,71.03
2023-01-01T05:35:35.854Z,71.15
2023-01-01T05:38:37.703Z,71.16
2023-01-01T05:41:39.798Z,71.69
2023-01-01T05:44:41.763Z,70.14
2023-01-01T05:47:43.228Z,71.16
2023-01-01T05:50:46.053Z,71.52
2023-01-01T05:53:48.309Z,70.80
2023-01-01T05:56:49.912Z,71.87
2023-01-01T05:59:51.252Z,71.25
2023-01-01T06:02:56.376Z,72.23
2023-01-01T06:06:07.933Z,72.35
2023-01-01T06:09:09.613Z,72.56
2023-01-01T06:12:11.647Z,71.87
2023-01-01T06:15:13.332Z,71.46
2023-01-01T06:18:14.893Z,72.21
2023-01-01T06:21:19.490Z,72.69
2023-01-01T06:24:21.318Z,73.05
2023-01-01T06:27:30.805Z,73.79
2023-01-01T06:30:32.584Z,74.70
2023-01-01T06:33:34.616Z,74.37
2023-01-01T06:36:44.414Z,75.59
2023-01-01T06:39:46.178Z,75.35
2023-01-01T06:42:47.718Z,75.42
2023-01-01T06:45:49.209Z,75.32
2023-01-01T06:48:53.278Z,75.33
2023-01-01T06:51:56.857Z,76.01
2023-01-01T06:55:00.467Z,76.82
2023-01-01T06:58:01.960Z,76.52
2023-01-01T07:01:08.635Z,75.90
2023-01-01T07:04:12.344Z,75.64
2023-01-01T07:07:15.147Z,75.51
2023-01-01T07:10:16.643Z,76.52
2023-01-01T07:13:18.391Z,75.80
2023-01-01T07:16:22.251Z,75.87
2023-01-01T07:19:23.793Z,76.60
2023-01-01T07:22:30.090Z,77.20
2023-01-01T07:25:31.789Z,77.54
2023-01-01T07:28:33.576Z,75.85
2023-01-01T07:31:35.499Z,77.11
2023-01-01T07:34:47.379Z,77.08
2023-01-01T07:37:53.292Z,78.39
2023-01-01T07:40:54.883Z,77.41
2023-01-01T07:43:56.667Z,77.41
2023-01-01T07:47:02.506Z,76.38
2023-01-01T07:50:04.709Z,76.23
2023-01-01T07:53:07.504Z,77.01
2023-01-01T07:56:09.277Z,76.65
2023-01-01T07:59:14.373Z,76.65
2023-01-01T08:02:18.615Z,75.83
2023-01-01T08:05:26.216Z,76.74
2023-01-01T08:08:30.656Z,77.79
2023-01-01T08:11:32.175Z,78.26
2023-01-01T08:14:33.661Z,79.63
2023-01-01T08:17:37.783Z,80.50
2023-01-01T08:20:46.685Z,82.10
2023-01-01T08:23:49.489Z,82.87
2023-01-01T08:26:51.123Z,84.32
2023-01-01T08:29:52.589Z,84.11
2023-01-01T08:32:54.051Z,83.99
2023-01-01T08:35:55.560Z,84.58
2023-01-01T08:38:58.433Z,84.53
2023-01-01T08:42:00.770Z,83.56
2023-01-01T08:45:02.249Z,85.18
2023-01-01T08:48:10.064Z,86.03
2023-01-01T08:51:16.480Z,86.26
2023-01-01T08:54:19.305Z,87.09
2023-01-01T08:57:20.811Z,88.85
2023-01-01T09:00:25.555Z,90.16
2023-01-01T09:03:27.103Z,90.07
2023-01-01T09:06:28.624Z,92.16
2023-01-01T09:09:32.026Z,93.26
2023-01-01T09:12:34.938Z,95.24
2023-01-01T09:15:38.034Z,96.49
2023-01-01T09:18:39.676Z,97.34
2023-01-01T09:21:41.091Z,97.94
2023-01-01T09:24:46.383Z,99.50
2023-01-01T09:27:48.119Z,100.00
2023-01-01T09:30:53.895Z,100.00
2023-01-01T09:33:55.360Z,100.00
2023-01-01T09:36:56.821Z,100.00
2023-01-01T09:39:59.605Z,100.00
2023-01-01T09:43:13.254Z,100.00
2023-01-01T09:46:14.740Z,100.00
2023-01-01T09:49:18.899Z,100.00
2023-01-01T09:52:20.749Z,100.00
2023-01-01T09:55:26.744Z,100.00
2023-01-01T09:58:32.735Z,100.00
2023-01-01T10:01:42.769Z,100.00
2023-01-01T10:04:55.509Z,100.00
2023-01-01T10:08:01.295Z,100.00
2023-01-01T10:11:11.218Z,100.00
2023-01-01T10:14:17.355Z,100.00
2023-01-01T10:17:23.437Z,100.00
2023-01-01T10:20:28.740Z,100.00
2023-01-01T10:23:34.159Z,100.00
2023-01-01T10:26:37.501Z,100.00
2023-01-01T10:29:42.277Z,100.00
2023-01-01T10:32:47.479Z,100.00
2023-01-01T10:35:53.913Z,100.00
2023-01-01T10:38:55.392Z,100.00
2023-01-01T10:41:58.716Z,100.00
2023-01-01T10:45:00.395Z,100.00
2023-01-01T10:48:14.018Z,100.00
2023-01-01T10:51:17.225Z,100.00
2023-01-01T10:54:31.338Z,100.00
2023-01-01T10:57:36.198Z,100.00
2023-01-01T11:00:37.712Z,100.00
2023-01-01T11:03:53.688Z,100.00
2023-01-01T11:06:57.248Z,100.00
2023-01-01T11:10:04.866Z,100.00
2023-01-01T11:13:17.839Z,100.00
2023-01-01T11:16:20.001Z,100.00
2023-01-01T11:19:24.185Z,100.00
2023-01-01T11:22:43.255Z,100.00
2023-01-01T11:25:57.085Z,100.00
2023-01-01T11:29:02.123Z,100.00
2023-01-01T11:32:11.363Z,100.00
2023-01-01T11:35:18.183Z,100.00
2023-01-01T11:38:30.559Z,100.00
2023-01-01T11:41:41.317Z,100.00
2023-01-01T11:44:50.804Z,100.00
2023-01-01T11:47:55.135Z,100.00
2023-01-01T11:51:00.406Z,100.00
2023-01-01T11:54:11.211Z,100.00
2023-01-01T11:57:17.218Z,100.00
2023-01-01T12:00:20.265Z,100.00
2023-01-01T12:03:29.572Z,100.00
2023-01-01T12:06:38.431Z,100.00
2023-01-01T12:09:43.470Z,100.00
2023-01-01T12:12:50.743Z,100.00
2023-01-01T12:16:00.381Z,100.00
2023-01-01T12:19:08.965Z,100.00
2023-01-01T12:22:15.460Z,100.00
2023-01-01T12:25:19.192Z,100.00
2023-01-01T12:28:29.935Z,100.00
2023-01-01T12:31:38.734Z,100.00
2023-01-01T12:34:45.686Z,100.00
2023-01-01T12:37:51.343Z,100.00
2023-01-01T12:40:59.069Z,100.00
2023-01-01T12:44:12.488Z,100.00
2023-01-01T12:47:27.970Z,100.00
2023-01-01T12:50:38.098Z,100.00
2023-01-01T12:53:49.846Z,100.00
2023-01-01T12:56:57.205Z,100.00
2023-01-01T13:00:02.242Z,100.00
2023-01-01T13:03:10.420Z,100.00
2023-01-01T13:06:26.588Z,100.00
2023-01-01T13:09:33.549Z,100.00
2023-01-01T13:12:35.359Z,100.00
2023-01-01T13:19:33.027Z,100.00
2023-01-01T13:22:39.965Z,100.00
2023-01-01T13:25:41.411Z,100.00
2023-01-01T13:28:42.991Z,100.00
2023-01-01T13:32:00.649Z,100.00
2023-01-01T13:35:15.611Z,100.00
2023-01-01T13:38:44.278Z,100.00
2023-01-01T13:41:46.054Z,100.00
2023-01-01T13:44:47.834Z,100.00
2023-01-01T13:48:09.569Z,100.00
2023-01-01T13:51:55.360Z,100.00
2023-01-01T13:55:24.895Z,100.00
2023-01-01T13:58:40.578Z,100.00
2023-01-01T14:01:53.175Z,100.00
2023-01-01T14:04:56.479Z,100.00
2023-01-01T14:07:59.790Z,100.00
2023-01-01T14:11:10.100Z,100.00
2023-01-01T14:14:19.222Z,100.00
2023-01-01T14:17:20.838Z,100.00
2023-01-01T14:20:26.926Z,100.00
2023-01-01T14:23:33.094Z,100.00
2023-01-01T14:26:37.768Z,100.00
2023-01-01T14:29:39.251Z,100.00
2023-01-01T14:32:40.769Z,100.00
2023-01-01T14:35:51.289Z,100.00
2023-01-01T14:38:55.635Z,100.00
2023-01-01T14:41:59.857Z,100.00
2023-01-01T14:45:01.503Z,100.00
2023-01-01T14:48:04.064Z,100.00
2023-01-01T14:51:05.923Z,100.00
2023-01-01T14:54:16.877Z,100.00
2023-01-01T14:57:24.654Z,100.00
2023-01-01T15:00:28.273Z,100.00
2023-01-01T15:03:31.379Z,100.00
2023-01-01T15:06:32.907Z,100.00
2023-01-01T15:09:35.707Z,100.00
2023-01-01T15:12:37.177Z,100.00
2023-01-01T15:15:41.415Z,100.00
2023-01-01T15:18:43.943Z,100.00
2023-01-01T15:21:45.481Z,100.00
2023-01-01T15:24:48.349Z,100.00
2023-01-01T15:27:50.749Z,100.00
2023-01-01T15:30:53.370Z,100.00
2023-01-01T15:33:54.974Z,100.00
2023-01-01T15:36:57.492Z,100.00
2023-01-01T15:40:01.706Z,100.00
2023-01-01T15:43:15.862Z,100.00
2023-01-01T15:46:20.520Z,100.00
2023-01-01T15:49:28.617Z,100.00
2023-01-01T15:52:30.309Z,100.00
2023-01-01T15:55:37.400Z,100.00
2023-01-01T15:58:41.654Z,100.00
2023-01-01T16:01:47.631Z,100.00
2023-01-01T16:04:50.249Z,100.00
2023-01-01T16:07:58.309Z,100.00
2023-01-01T16:11:01.173Z,100.00
2023-01-01T16:14:02.824Z,100.00
2023-01-01T16:17:04.551Z,100.00
2023-01-01T16:20:06.509Z,100.00
2023-01-01T16:23:11.604Z,100.00
2023-01-01T16:26:21.313Z,100.00
2023-01-01T16:29:22.798Z,100.00
2023-01-01T16:32:24.441Z,100.00
2023-01-01T16:35:25.954Z,100.00
2023-01-01T16:38:28.632Z,100.00
2023-01-01T16:41:31.466Z,100.00
2023-01-01T16:44:35.359Z,100.00
2023-01-01T16:47:36.787Z,100.00
2023-01-01T16:50:38.376Z,100.00
2023-01-01T16:53:42.929Z,100.00
2023-01-01T16:56:45.709Z,100.00
2023-01-01T16:59:47.565Z,100.00
2023-01-01T17:02:49.585Z,100.00
2023-01-01T17:05:51.177Z,100.00
2023-01-01T17:08:59.814Z,100.00
2023-01-01T17:12:06.538Z,100.00
2023-01-01T17:15:08.770Z,100.00
2023-01-01T17:18:10.909Z,100.00
2023-01-01T17:21:12.553Z,100.00
2023-01-01T17:24:14.464Z,100.00
2023-01-01T17:27:17.418Z,100.00
2023-01-01T17:30:19.026Z,100.00
2023-01-01T17:33:28.883Z,100.00
2023-01-01T17:36:30.536Z,100.00
2023-01-01T17:39:31.948Z,100.00
2023-01-01T17:42:34.872Z,100.00
2023-01-01T17:45:36.506Z,100.00
2023-01-01T17:48:37.964Z,100.00
2023-01-01T17:51:39.691Z,100.00
2023-01-01T17:54:41.079Z,100.00
2023-01-01T17:57:44.216Z,100.00
2023-01-01T18:00:45.833Z,100.00
2023-01-01T18:03:48.253Z,100.00
2023-01-01T18:06:54.792Z,100.00
2023-01-01T18:09:57.174Z,100.00
2023-01-01T18:13:01.592Z,100.00
2023-01-01T18:16:05.347Z,100.00
2023-01-01T18:19:07.475Z,100.00
2023-01-01T18:22:08.947Z,100.00
2023-01-01T18:25:10.650Z,100.00
2023-01-01T18:28:13.542Z,100.00
2023-01-01T18:31:15.974Z,100.00
2023-01-01T18:34:23.984Z,100.00
2023-01-01T18:37:25.402Z,100.00
2023-01-01T18:40:27.408Z,100.00
2023-01-01T18:43:33.260Z,100.00
2023-01-01T18:46:38.181Z,100.00
2023-01-01T18:49:48.203Z,100.00
2023-01-01T18:52:52.464Z,100.00
2023-01-01T18:56:01.016Z,100.00
2023-01-01T18:59:16.187Z,100.00
2023-01-01T19:02:28.632Z,100.00
2023-01-01T19:05:31.360Z,100.00
2023-01-01T19:08:32.917Z,100.00
2023-01-01T19:11:35.594Z,100.00
2023-01-01T19:14:38.439Z,100.00
2023-01-01T19:17:44.970Z,100.00
2023-01-01T19:20:49.582Z,100.00
2023-01-01T19:23:52.472Z,100.00
2023-01-01T19:26:56.899Z,100.00
2023-01-01T19:30:01.788Z,100.00
2023-01-01T19:33:03.427Z,100.00
2023-01-01T19:36:05.441Z,100.00
2023-01-01T19:39:07.540Z,100.00
2023-01-01T19:42:09.058Z,100.00
2023-01-01T19:45:12.125Z,100.00
2023-01-01T19:48:13.627Z,100.00
2023-01-01T19:51:15.152Z,100.00
2023-01-01T19:54:16.641Z,100.00
2023-01-01T19:57:18.386Z,100.00
2023-01-01T20:00:21.784Z,100.00
2023-01-01T20:06:48.368Z,100.00
2023-01-01T20:09:49.894Z,100.00
2023-01-01T20:12:51.458Z,100.00
2023-01-01T20:16:00.843Z,100.00
2023-01-01T20:19:06.583Z,100.00
2023-01-01T20:22:08.079Z,100.00
2023-01-01T20:25:10.155Z,100.00
2023-01-01T20:28:11.586Z,100.00
2023-01-01T20:31:17.153Z,100.00
2023-01-01T20:34:21.531Z,100.00
2023-01-01T20:37:23.020Z,100.00
2023-01-01T20:40:24.738Z,100.00
2023-01-01T20:43:26.211Z,100.00
2023-01-01T20:46:29.245Z,100.00
2023-01-01T20:49:30.777Z,100.00
2023-01-01T20:52:34.054Z,100.00
2023-01-01T20:55:35.578Z,100.00
2023-01-01T20:58:37.024Z,100.00
2023-01-01T21:01:40.135Z,100.00
2023-01-01T21:04:42.216Z,100.00
2023-01-01T21:07:43.530Z,100.00
2023-01-01T21:10:45.013Z,100.00
2023-01-01T21:13:46.967Z,100.00
2023-01-01T21:16:50.074Z,100.00
2023-01-01T21:19:54.212Z,100.00
2023-01-01T21:22:59.037Z,100.00
2023-01-01T21:26:00.601Z,100.00
2023-01-01T21:29:05.298Z,100.00
2023-01-01T21:32:16.434Z,100.00
2023-01-01T21:35:19.903Z,100.00
2023-01-01T21:38:23.862Z,100.00
2023-01-01T21:41:25.995Z,100.00
2023-01-01T21:44:27.331Z,100.00
2023-01-01T21:47:34.116Z,100.00
2023-01-01T21:50:39.456Z,100.00
2023-01-01T21:53:41.552Z,100.00
2023-01-01T21:56:49.779Z,100.00
2023-01-01T21:59:51.910Z,100.00
2023-01-01T22:02:54.837Z,100.00
2023-01-01T22:05:59.493Z,100.00
2023-01-01T22:09:01.781Z,100.00
2023-01-01T22:12:18.382Z,100.00
2023-01-01T22:15:28.247Z,100.00
2023-01-01T22:18:32.831Z,100.00
2023-01-01T22:21:35.727Z,100.00
2023-01-01T22:24:37.443Z,100.00
2023-01-01T22:27:38.882Z,100.00
2023-01-01T22:30:41.615Z,100.00
2023-01-01T22:33:46.308Z,100.00
2023-01-01T22:36:48.387Z,100.00
2023-01-01T22:39:50.086Z,100.00
2023-01-01T22:42:51.537Z,100.00
2023-01-01T22:45:53.124Z,100.00
2023-01-01T22:48:58.462Z,100.00
2023-01-01T22:52:01.735Z,100.00
2023-01-01T22:55:03.545Z,100.00
2023-01-01T22:58:05.243Z,100.00
2023-01-01T23:01:06.866Z,100.00
2023-01-01T23:04:09.761Z,100.00
2023-01-01T23:07:11.668Z,100.00
2023-01-01T23:10:14.163Z,100.00
2023-01-01T23:13:16.085Z,100.00
2023-01-01T23:16:17.594Z,100.00
2023-01-01T23:19:20.467Z,100.00
2023-01-01T23:22:21.960Z,100.00
2023-01-01T23:25:23.891Z,100.00
2023-01-01T23:28:26.433Z,100.00
2023-01-01T23:31:28.249Z,100.00
2023-01-01T23:34:31.250Z,100.00
2023-01-01T23:37:34.095Z,100.00
2023-01-01T23:40:35.596Z,100.00
2023-01-01T23:43:43.200Z,100.00
2023-01-01T23:46:45.779Z,100.00
2023-01-01T23:49:48.688Z,100.00
2023-01-01T23:52:50.146Z,100.00
2023-01-01T23:55:51.643Z,100.00
2023-01-01T23:58:53.068Z,100.00
